Time;durP1;ratioP1;P1;durP2;ratioP2;P2;SDS_P1;SDS_P2;PMS_P1;PMS_P2;Temp;Humidity;BMP_temperature;BMP_pressure;BME280_temperature;BME280_humidity;BME280_pressure;Samples;Min_cycle;Max_cycle;Signal;HPM_P1;HPM_P2
2022/01/30 00:01:31;;;;;;;36.92;7.45;;;;;;;5.40;100.00;102098.22;4953977;28;20447;-78
2022/01/30 00:03:59;;;;;;;49.00;7.20;;;;;;;5.41;100.00;102083.44;4973692;28;20046;-79
2022/01/30 00:06:28;;;;;;;32.15;6.72;;;;;;;5.41;100.00;102086.06;4923478;28;20312;-79
2022/01/30 00:08:56;;;;;;;32.22;6.20;;;;;;;5.41;100.00;102097.41;4967775;28;20053;-79
2022/01/30 00:11:32;;;;;;;29.90;6.50;;;;;;;5.45;100.00;102104.56;4953272;28;20050;-79
2022/01/30 00:14:03;;;;;;;25.25;6.07;;;;;;;5.46;100.00;102108.97;4952379;28;20041;-79
2022/01/30 00:16:36;;;;;;;37.75;6.55;;;;;;;5.46;100.00;102113.28;4960698;28;20511;-79
2022/01/30 00:19:16;;;;;;;36.80;7.20;;;;;;;5.46;100.00;102108.97;4973002;28;20034;-79
2022/01/30 00:21:52;;;;;;;35.05;6.43;;;;;;;5.45;100.00;102116.75;4967345;28;20547;-80
2022/01/30 00:24:59;;;;;;;28.60;6.72;;;;;;;5.43;100.00;102100.97;4945142;28;20049;-80
2022/01/30 00:27:20;;;;;;;34.15;6.18;;;;;;;5.43;100.00;102100.97;4949448;28;20062;-81
2022/01/30 00:29:50;;;;;;;39.90;6.80;;;;;;;5.41;100.00;102110.47;4960481;28;20341;-81
2022/01/30 00:32:19;;;;;;;30.90;5.95;;;;;;;5.43;100.00;102110.56;4969326;28;20515;-81
2022/01/30 00:35:09;;;;;;;36.22;6.20;;;;;;;5.40;100.00;102095.59;4973672;28;20682;-79
2022/01/30 00:37:40;;;;;;;27.83;6.18;;;;;;;5.38;100.00;102092.03;4953693;28;20062;-78
2022/01/30 00:40:29;;;;;;;33.78;6.80;;;;;;;5.35;100.00;102089.28;4970581;28;20042;-79
2022/01/30 00:42:58;;;;;;;24.05;5.95;;;;;;;5.32;100.00;102103.94;4984555;28;20050;-80
2022/01/30 00:45:28;;;;;;;28.83;5.85;;;;;;;5.26;100.00;102105.44;4970855;28;20401;-78
2022/01/30 00:47:57;;;;;;;29.33;6.50;;;;;;;5.21;100.00;102114.78;4967444;28;20035;-79
2022/01/30 00:50:25;;;;;;;28.75;6.47;;;;;;;5.19;100.00;102105.09;4965869;28;20038;-80
2022/01/30 00:52:55;;;;;;;28.88;6.07;;;;;;;5.15;100.00;102103.19;4966383;28;20046;-80
2022/01/30 00:55:25;;;;;;;33.38;5.43;;;;;;;5.13;100.00;102102.22;4948755;28;20039;-79
2022/01/30 00:57:55;;;;;;;37.08;6.50;;;;;;;5.12;100.00;102089.97;4986492;28;20399;-79
2022/01/30 01:00:25;;;;;;;38.27;6.20;;;;;;;5.10;100.00;102082.06;4967512;28;20057;-79
2022/01/30 01:02:54;;;;;;;35.15;6.60;;;;;;;5.10;100.00;102083.78;4984933;28;20087;-79
2022/01/30 01:05:23;;;;;;;34.92;5.50;;;;;;;5.07;100.00;102093.28;4955127;28;20043;-80
2022/01/30 01:07:55;;;;;;;34.40;7.30;;;;;;;5.08;100.00;102084.63;4962031;28;20058;-80
2022/01/30 01:13:06;;;;;;;28.38;4.45;;;;;;;5.13;100.00;102094.38;4999983;28;20038;-79
2022/01/30 01:24:00;;;;;;;35.42;7.32;;;;;;;5.30;100.00;102113.44;4961451;28;20038;-79
2022/01/30 01:26:28;;;;;;;44.67;6.57;;;;;;;5.32;100.00;102149.28;4948542;28;20069;-79
2022/01/30 01:28:57;;;;;;;33.40;6.38;;;;;;;5.23;100.00;102164.53;4927664;28;20488;-79
2022/01/30 01:31:26;;;;;;;26.17;4.97;;;;;;;5.08;100.00;102165.63;4985813;28;20050;-79
2022/01/30 01:36:32;;;;;;;19.15;4.13;;;;;;;4.81;100.00;102156.47;4977836;28;20038;-79
2022/01/30 01:39:01;;;;;;;21.02;3.90;;;;;;;4.74;100.00;102164.84;4992953;28;20066;-79
2022/01/30 01:41:31;;;;;;;29.85;4.30;;;;;;;4.69;100.00;102170.72;4939838;28;20399;-78
2022/01/30 01:44:00;;;;;;;24.75;4.75;;;;;;;4.65;100.00;102174.03;4983054;28;20046;-80
2022/01/30 01:46:34;;;;;;;24.15;5.57;;;;;;;4.63;100.00;102154.78;4970729;28;20046;-79
2022/01/30 01:49:02;;;;;;;25.67;5.80;;;;;;;4.64;100.00;102164.38;4979182;28;20058;-80
2022/01/30 01:51:32;;;;;;;25.83;5.70;;;;;;;4.65;100.00;102165.28;4994841;28;20049;-80
2022/01/30 01:54:00;;;;;;;29.95;6.13;;;;;;;4.69;100.00;102180.28;4970810;28;20400;-80
2022/01/30 01:56:30;;;;;;;28.45;6.57;;;;;;;4.73;100.00;102170.91;4948732;28;20078;-79
2022/01/30 01:59:08;;;;;;;37.20;6.07;;;;;;;4.75;100.00;102185.81;4972308;28;20710;-79
2022/01/30 02:02:09;;;;;;;29.88;6.63;;;;;;;4.78;100.00;102192.88;4963059;28;20271;-79
2022/01/30 02:04:40;;;;;;;36.67;6.85;;;;;;;4.81;100.00;102190.44;4970592;28;20504;-79
2022/01/30 02:09:47;;;;;;;34.65;6.43;;;;;;;4.84;100.00;102201.03;4975491;28;19929;-81
2022/01/30 02:12:34;;;;;;;50.30;7.93;;;;;;;4.86;100.00;102207.22;4986626;28;20058;-79
2022/01/30 02:26:14;;;;;;;40.38;8.23;;;;;;;5.05;100.00;102222.94;4953883;28;20502;-79
2022/01/30 02:28:42;;;;;;;47.30;8.15;;;;;;;5.12;100.00;102220.63;4953216;28;20034;-80
2022/01/30 02:31:14;;;;;;;41.60;8.00;;;;;;;5.16;100.00;102215.63;4983449;28;20519;-79
2022/01/30 02:33:45;;;;;;;46.50;7.80;;;;;;;5.20;100.00;102221.91;4954814;28;20053;-80
2022/01/30 02:36:13;;;;;;;49.95;8.18;;;;;;;5.20;100.00;102221.91;4950269;28;20096;-79
2022/01/30 02:38:42;;;;;;;49.30;8.85;;;;;;;5.20;100.00;102220.16;4928572;28;20046;-80
2022/01/30 02:41:10;;;;;;;36.97;7.38;;;;;;;5.23;100.00;102224.63;4949949;28;20169;-80
2022/01/30 02:44:03;;;;;;;41.90;7.82;;;;;;;5.26;100.00;102235.25;4984187;28;20041;-81
2022/01/30 02:46:35;;;;;;;40.45;7.68;;;;;;;5.29;100.00;102237.97;4962000;28;20046;-80
2022/01/30 02:49:24;;;;;;;31.85;7.47;;;;;;;5.31;100.00;102231.09;4954180;28;20576;-80
2022/01/30 02:51:59;;;;;;;46.00;8.18;;;;;;;5.33;100.00;102234.72;4965221;28;20050;-80
2022/01/30 02:54:30;;;;;;;48.67;7.93;;;;;;;5.35;100.00;102248.75;4992071;28;20055;-80
2022/01/30 02:56:59;;;;;;;35.00;7.40;;;;;;;5.35;100.00;102227.84;4967282;28;20038;-81
2022/01/30 02:59:27;;;;;;;43.50;8.43;;;;;;;5.35;100.00;102233.06;4972155;28;20047;-80
2022/01/30 03:01:56;;;;;;;40.03;7.82;;;;;;;5.35;100.00;102242.59;4951389;28;20364;-79
2022/01/30 03:04:25;;;;;;;37.20;8.48;;;;;;;5.37;100.00;102240.94;4984231;28;20077;-78
2022/01/30 03:06:53;;;;;;;45.72;8.80;;;;;;;5.39;100.00;102239.34;4981719;28;20050;-79
2022/01/30 03:09:44;;;;;;;43.20;9.27;;;;;;;5.42;100.00;102250.81;4954080;28;20062;-80
2022/01/30 03:12:13;;;;;;;45.67;7.95;;;;;;;5.43;100.00;102257.84;4965621;28;20053;-79
2022/01/30 03:14:42;;;;;;;49.95;10.30;;;;;;;5.45;100.00;102264.03;4950530;28;20045;-80
2022/01/30 03:17:11;;;;;;;42.38;9.05;;;;;;;5.45;100.00;102264.03;4934503;28;20371;-79
2022/01/30 03:19:40;;;;;;;51.13;8.90;;;;;;;5.43;100.00;102251.72;4958990;28;20038;-79
2022/01/30 03:22:09;;;;;;;62.22;10.65;;;;;;;5.42;100.00;102257.75;4946485;28;20054;-80
2022/01/30 03:24:38;;;;;;;43.15;7.65;;;;;;;5.43;100.00;102263.06;4984381;28;20069;-79
2022/01/30 03:27:28;;;;;;;53.40;9.35;;;;;;;5.45;100.00;102284.06;4983437;28;20050;-79
2022/01/30 03:30:07;;;;;;;45.90;8.68;;;;;;;5.46;100.00;102267.53;4936111;28;20034;-79
2022/01/30 03:32:58;;;;;;;54.85;10.70;;;;;;;5.46;100.00;102283.22;4968939;28;20054;-80
2022/01/30 03:35:28;;;;;;;43.83;9.30;;;;;;;5.49;100.00;102277.25;4951233;28;20497;-80
2022/01/30 03:37:57;;;;;;;52.83;8.63;;;;;;;5.51;100.00;102275.59;4959678;28;20047;-79
2022/01/30 03:40:25;;;;;;;40.70;8.15;;;;;;;5.53;100.00;102287.91;4960584;28;20042;-79
2022/01/30 03:42:56;;;;;;;43.30;8.32;;;;;;;5.55;100.00;102298.47;4948561;28;20542;-80
2022/01/30 03:45:24;;;;;;;36.20;7.35;;;;;;;5.57;100.00;102292.47;4965058;28;20056;-79
2022/01/30 03:47:56;;;;;;;48.30;10.75;;;;;;;5.58;100.00;102283.81;4980809;28;20039;-78
2022/01/30 03:50:45;;;;;;;48.60;9.60;;;;;;;5.60;100.00;102292.63;4988705;28;20065;-79
2022/01/30 03:53:14;;;;;;;48.30;9.88;;;;;;;5.62;100.00;102282.25;4982526;28;20054;-79
2022/01/30 03:55:42;;;;;;;56.20;9.50;;;;;;;5.63;100.00;102289.25;4933476;28;20396;-80
2022/01/30 03:58:19;;;;;;;40.35;8.55;;;;;;;5.63;100.00;102289.25;4972880;28;20042;-80
2022/01/30 04:00:48;;;;;;;46.80;9.15;;;;;;;5.63;100.00;102295.38;4963748;28;20527;-80
2022/01/30 04:03:17;;;;;;;39.08;9.00;;;;;;;5.64;100.00;102297.16;4945438;28;20278;-81
2022/01/30 04:05:46;;;;;;;39.67;8.27;;;;;;;5.65;100.00;102298.03;4955382;28;20046;-80
2022/01/30 04:08:15;;;;;;;58.95;10.63;;;;;;;5.64;100.00;102314.59;4969705;28;20046;-78
2022/01/30 04:11:02;;;;;;;45.83;8.23;;;;;;;5.64;100.00;102309.34;4943940;28;20046;-80
2022/01/30 04:13:42;;;;;;;39.15;7.63;;;;;;;5.64;100.00;102317.19;4951294;28;20429;-79
2022/01/30 04:16:18;;;;;;;34.83;7.97;;;;;;;5.62;100.00;102322.34;4957626;28;20327;-80
2022/01/30 04:19:01;;;;;;;34.25;7.10;;;;;;;5.64;98.93;102325.03;4946157;28;20042;-80
2022/01/30 04:21:57;;;;;;;44.70;8.77;;;;;;;5.62;94.26;102343.28;4996768;28;20054;-80
2022/01/30 04:24:39;;;;;;;35.33;7.43;;;;;;;5.63;98.11;102336.31;4975389;28;20495;-79
2022/01/30 04:27:26;;;;;;;46.60;8.00;;;;;;;5.58;98.47;102336.09;4973002;28;20053;-80
2022/01/30 04:30:07;;;;;;;38.13;7.80;;;;;;;5.57;100.00;102355.22;4946223;28;20250;-79
2022/01/30 04:32:52;;;;;;;41.47;8.55;;;;;;;5.53;100.00;102352.41;4963943;28;20395;-79
2022/01/30 04:35:38;;;;;;;48.60;8.95;;;;;;;5.51;100.00;102364.50;4973301;28;20042;-79
2022/01/30 04:38:39;;;;;;;41.30;7.22;;;;;;;5.50;99.71;102367.94;4974014;28;20054;-79
2022/01/30 05:08:23;;;;;;;41.30;7.47;;;;;;;5.45;93.32;102339.84;5002453;28;20057;-80
2022/01/30 05:11:04;;;;;;;46.35;7.68;;;;;;;5.44;94.53;102350.22;4975070;28;20038;-81
2022/01/30 05:14:05;;;;;;;52.90;9.10;;;;;;;5.37;95.56;102358.59;4966188;28;20629;-80
2022/01/30 05:16:47;;;;;;;57.38;8.68;;;;;;;5.33;96.59;102359.28;4956047;28;20066;-80
2022/01/30 05:19:45;;;;;;;49.45;9.77;;;;;;;5.30;97.51;102360.03;4963934;28;20411;-80
2022/01/30 05:22:20;;;;;;;53.28;9.85;;;;;;;5.29;98.62;102355.59;5011189;28;20534;-79
2022/01/30 05:25:03;;;;;;;46.03;8.77;;;;;;;5.27;98.85;102373.84;4967360;28;20127;-80
2022/01/30 05:27:38;;;;;;;45.50;9.68;;;;;;;5.29;98.54;102376.50;4965151;28;20242;-79
2022/01/30 05:30:20;;;;;;;48.05;11.07;;;;;;;5.27;98.30;102386.00;4965421;28;20173;-80
2022/01/30 05:33:03;;;;;;;49.00;8.48;;;;;;;5.27;98.83;102389.53;4954120;28;20047;-79
2022/01/30 05:35:41;;;;;;;45.45;7.88;;;;;;;5.27;98.29;102396.47;4979541;28;20038;-79
2022/01/30 05:38:28;;;;;;;46.72;7.90;;;;;;;5.28;97.81;102398.25;4996025;28;20471;-79
2022/01/30 05:41:33;;;;;;;43.50;9.82;;;;;;;5.29;96.57;102394.81;4927551;29;20046;-79
2022/01/30 05:44:41;;;;;;;44.05;8.65;;;;;;;5.25;97.85;102391.19;4969147;28;20062;-79
2022/01/30 05:47:44;;;;;;;50.25;9.70;;;;;;;5.19;99.00;102385.63;4978610;28;20054;-80
2022/01/30 05:50:32;;;;;;;52.28;9.75;;;;;;;5.11;99.72;102378.25;4960706;28;22980;-80
2022/01/30 05:53:05;;;;;;;52.10;8.57;;;;;;;5.07;99.96;102395.47;4997935;28;20232;-79
2022/01/30 05:55:43;;;;;;;46.80;9.23;;;;;;;5.03;100.00;102406.59;4985974;28;20046;-80
2022/01/30 05:58:13;;;;;;;50.27;10.43;;;;;;;5.03;100.00;102404.88;4983416;28;20263;-81
2022/01/30 06:01:00;;;;;;;49.70;9.75;;;;;;;5.05;100.00;102415.41;4949852;28;20774;-81
2022/01/30 06:03:29;;;;;;;39.35;7.88;;;;;;;5.00;100.00;102391.66;5001372;28;20069;-79
2022/01/30 06:05:58;;;;;;;40.80;8.52;;;;;;;4.91;100.00;102406.84;4930666;28;20050;-80
2022/01/30 06:08:46;;;;;;;47.50;9.90;;;;;;;4.88;100.00;102417.16;4969931;28;20049;-79
2022/01/30 06:11:14;;;;;;;42.40;9.75;;;;;;;4.85;100.00;102423.09;4942715;28;20049;-79
2022/01/30 06:13:43;;;;;;;48.13;9.05;;;;;;;4.84;100.00;102428.28;4968142;28;20579;-79
2022/01/30 06:16:11;;;;;;;58.80;9.82;;;;;;;4.85;100.00;102441.38;4960895;28;20038;-80
2022/01/30 06:18:40;;;;;;;64.38;10.27;;;;;;;4.86;100.00;102447.53;4967946;28;20050;-80
2022/01/30 06:21:09;;;;;;;62.33;9.75;;;;;;;4.89;100.00;102452.91;4969283;28;20053;-79
2022/01/30 06:23:56;;;;;;;47.83;9.02;;;;;;;4.82;100.00;102464.75;4992040;28;20399;-78
2022/01/30 06:26:37;;;;;;;43.42;8.25;;;;;;;4.71;100.00;102452.84;4982148;28;20038;-80
2022/01/30 06:29:18;;;;;;;46.15;9.52;;;;;;;4.60;100.00;102456.59;4978588;28;20383;-81
2022/01/30 06:32:05;;;;;;;52.50;10.07;;;;;;;4.52;100.00;102463.09;4972262;28;20057;-80
2022/01/30 06:34:52;;;;;;;46.17;7.72;;;;;;;4.47;100.00;102468.09;4986254;28;20042;-79
2022/01/30 06:37:27;;;;;;;50.78;10.13;;;;;;;4.46;100.00;102466.28;4966756;28;20282;-79
2022/01/30 06:40:07;;;;;;;37.70;7.18;;;;;;;4.46;100.00;102480.25;4939757;28;20045;-81
2022/01/30 06:42:56;;;;;;;41.70;8.85;;;;;;;4.47;100.00;102475.94;4961355;28;20053;-79
2022/01/30 06:45:44;;;;;;;26.38;6.05;;;;;;;4.47;100.00;102476.81;4990342;28;20264;-79
2022/01/30 06:48:31;;;;;;;31.17;5.60;;;;;;;4.50;100.00;102481.31;4975076;28;20081;-79
2022/01/30 06:51:18;;;;;;;33.22;6.72;;;;;;;4.54;100.00;102480.66;4942874;28;20053;-79
2022/01/30 06:54:06;;;;;;;24.25;6.00;;;;;;;4.60;97.26;102480.09;4960317;28;20054;-80
2022/01/30 06:56:44;;;;;;;32.00;6.60;;;;;;;4.67;98.76;102504.00;4984214;28;20042;-80
2022/01/30 06:59:30;;;;;;;31.23;6.72;;;;;;;4.75;98.18;102498.31;4983774;28;20046;-80
2022/01/30 07:02:18;;;;;;;33.13;8.13;;;;;;;4.80;99.21;102496.81;4957262;28;20035;-81
2022/01/30 07:05:10;;;;;;;33.60;7.63;;;;;;;4.81;99.01;102502.13;4975578;28;20054;-79
2022/01/30 07:07:48;;;;;;;41.90;7.40;;;;;;;4.81;96.58;102503.84;4947672;28;20042;-79
2022/01/30 07:10:17;;;;;;;25.73;5.50;;;;;;;4.81;95.15;102502.13;4944744;28;20491;-80
2022/01/30 07:12:45;;;;;;;30.40;6.63;;;;;;;4.84;92.89;102502.31;4965798;28;20073;-80
2022/01/30 07:15:14;;;;;;;36.65;5.75;;;;;;;4.85;90.30;102509.31;4967479;28;20093;-79
2022/01/30 07:17:43;;;;;;;29.27;6.82;;;;;;;4.89;90.97;102494.69;4957093;28;20054;-79
2022/01/30 07:20:12;;;;;;;37.92;6.63;;;;;;;4.91;92.68;102484.34;4944054;28;20047;-79
2022/01/30 07:22:41;;;;;;;37.33;7.88;;;;;;;4.92;92.93;102493.97;4959570;28;20046;-80
2022/01/30 07:25:09;;;;;;;30.35;6.25;;;;;;;4.92;94.09;102504.44;4951331;28;20054;-78
2022/01/30 07:27:42;;;;;;;39.58;7.82;;;;;;;4.91;93.58;102515.69;4969675;28;20073;-79
2022/01/30 07:30:11;;;;;;;43.67;7.57;;;;;;;4.90;93.51;102520.00;4983644;28;20042;-80
2022/01/30 07:32:39;;;;;;;34.55;7.63;;;;;;;4.92;94.55;102526.22;4950167;28;20152;-80
2022/01/30 07:35:08;;;;;;;33.50;8.00;;;;;;;4.94;95.30;102532.41;4977553;28;20050;-81
2022/01/30 07:37:37;;;;;;;34.78;6.97;;;;;;;4.95;95.66;102539.41;4982718;28;20038;-79
2022/01/30 07:40:06;;;;;;;38.03;8.02;;;;;;;4.97;96.04;102542.13;4967719;28;20560;-79
2022/01/30 07:42:35;;;;;;;37.35;7.88;;;;;;;5.00;96.85;102537.06;4932441;28;20051;-80
2022/01/30 07:45:06;;;;;;;69.22;10.68;;;;;;;5.01;98.14;102546.69;4969289;28;20043;-79
2022/01/30 07:47:34;;;;;;;50.25;8.80;;;;;;;5.01;98.85;102557.13;4971887;28;20053;-78
2022/01/30 07:50:03;;;;;;;44.22;9.38;;;;;;;5.00;98.48;102552.75;4978701;28;20057;-78
2022/01/30 07:52:32;;;;;;;46.78;8.05;;;;;;;4.97;97.93;102555.19;4951606;28;20065;-78
2022/01/30 07:55:02;;;;;;;55.85;9.18;;;;;;;4.98;98.74;102557.88;4953825;28;20057;-79
2022/01/30 07:57:31;;;;;;;58.15;10.77;;;;;;;4.98;98.53;102557.88;4969136;28;20605;-78
2022/01/30 08:00:00;;;;;;;43.00;9.35;;;;;;;4.99;98.34;102546.63;4971616;28;20076;-79
2022/01/30 08:02:28;;;;;;;45.17;8.00;;;;;;;5.01;97.50;102560.69;4991348;28;20042;-79
2022/01/30 08:04:59;;;;;;;38.92;8.63;;;;;;;5.03;96.99;102561.66;4965051;28;20034;-78
2022/01/30 08:07:28;;;;;;;46.95;9.05;;;;;;;5.06;96.81;102571.34;5000592;28;20069;-79
2022/01/30 08:09:57;;;;;;;54.78;9.80;;;;;;;5.08;96.01;102574.94;4985686;28;20508;-79
2022/01/30 08:12:26;;;;;;;52.33;8.15;;;;;;;5.11;96.20;102574.22;4959944;28;20246;-79
2022/01/30 08:14:54;;;;;;;48.53;8.68;;;;;;;5.12;96.47;102571.66;4989922;28;20050;-78
2022/01/30 08:17:23;;;;;;;47.00;9.48;;;;;;;5.12;97.20;102576.91;4953547;28;20037;-80
2022/01/30 08:19:52;;;;;;;53.97;9.75;;;;;;;5.12;98.64;102578.63;4956174;28;20062;-79
2022/01/30 08:22:20;;;;;;;58.88;9.63;;;;;;;5.13;99.24;102575.22;4962149;28;20030;-82
2022/01/30 08:24:49;;;;;;;56.38;9.40;;;;;;;5.12;100.00;102583.84;4951895;28;20369;-79
2022/01/30 08:27:17;;;;;;;56.85;11.02;;;;;;;5.13;100.00;102580.44;5002173;28;20043;-79
2022/01/30 08:29:47;;;;;;;52.00;12.02;;;;;;;5.10;100.00;102589.00;4971079;28;20058;-79
2022/01/30 08:32:15;;;;;;;52.97;9.23;;;;;;;5.09;100.00;102597.66;4965677;28;20057;-79
2022/01/30 08:34:44;;;;;;;47.50;8.07;;;;;;;5.05;97.55;102604.44;4955077;28;20519;-79
2022/01/30 08:37:12;;;;;;;41.85;7.35;;;;;;;5.04;95.07;102588.66;4975725;28;20050;-79
2022/01/30 08:39:40;;;;;;;36.58;7.68;;;;;;;5.05;92.19;102585.25;4981615;28;20046;-80
2022/01/30 08:42:09;;;;;;;38.45;7.65;;;;;;;5.07;91.22;102581.91;4924224;28;20053;-80
2022/01/30 08:44:38;;;;;;;38.35;7.68;;;;;;;5.12;91.99;102589.97;4989304;28;20259;-79
2022/01/30 08:47:07;;;;;;;35.80;7.78;;;;;;;5.19;91.90;102591.22;4943728;28;20492;-80
2022/01/30 08:49:35;;;;;;;42.65;8.68;;;;;;;5.28;92.17;102591.69;4976935;28;20076;-79
2022/01/30 08:52:04;;;;;;;52.60;8.10;;;;;;;5.36;93.44;102593.00;4955722;28;20404;-79
2022/01/30 08:54:32;;;;;;;48.63;9.05;;;;;;;5.43;91.92;102581.16;4982623;28;20264;-78
2022/01/30 08:57:01;;;;;;;35.20;7.38;;;;;;;5.50;92.80;102590.19;4924408;28;20050;-79
2022/01/30 08:59:33;;;;;;;48.88;8.15;;;;;;;5.52;92.46;102589.47;4976869;28;20073;-78
2022/01/30 09:02:01;;;;;;;41.17;8.65;;;;;;;5.55;93.73;102601.78;4959688;28;20142;-78
2022/01/30 09:04:30;;;;;;;50.03;8.82;;;;;;;5.56;94.05;102606.22;4974276;28;20571;-79
2022/01/30 09:06:58;;;;;;;47.95;8.90;;;;;;;5.58;94.41;102601.97;4953032;28;20408;-79
2022/01/30 09:09:30;;;;;;;43.38;10.02;;;;;;;5.63;94.82;102610.94;4939663;28;20051;-79
2022/01/30 09:11:59;;;;;;;43.20;8.05;;;;;;;5.68;94.67;102598.09;4957352;28;20268;-80
2022/01/30 09:14:30;;;;;;;50.00;8.93;;;;;;;5.72;94.90;102600.06;4976070;28;20047;-79
2022/01/30 09:16:59;;;;;;;46.00;8.73;;;;;;;5.75;94.51;102585.41;4951583;28;20267;-79
2022/01/30 09:19:41;;;;;;;52.85;10.68;;;;;;;5.77;94.79;102599.47;4973567;28;20054;-80
2022/01/30 09:22:12;;;;;;;52.40;9.77;;;;;;;5.77;94.43;102590.72;4966413;28;20168;-79
2022/01/30 09:24:41;;;;;;;45.65;9.05;;;;;;;5.74;94.81;102603.63;4965577;28;20030;-79
2022/01/30 09:27:09;;;;;;;40.45;8.00;;;;;;;5.70;94.20;102601.69;4945247;28;20046;-78
2022/01/30 09:29:39;;;;;;;40.70;7.90;;;;;;;5.70;94.33;102628.75;4982893;28;20046;-81
2022/01/30 09:32:08;;;;;;;44.60;10.43;;;;;;;5.68;94.30;102625.16;4993413;28;20034;-80
2022/01/30 09:34:37;;;;;;;55.05;10.63;;;;;;;5.65;94.73;102625.91;4985725;28;20395;-80
2022/01/30 09:37:07;;;;;;;49.78;9.45;;;;;;;5.70;95.26;102625.22;4974950;28;20160;-78
2022/01/30 09:39:37;;;;;;;50.53;9.30;;;;;;;5.78;95.80;102624.78;4961165;28;20147;-79
2022/01/30 09:42:06;;;;;;;38.60;8.93;;;;;;;5.83;95.27;102627.66;4954108;28;20371;-79
2022/01/30 09:44:39;;;;;;;50.38;9.95;;;;;;;5.84;95.45;102627.75;4966845;28;20023;-79
2022/01/30 09:47:13;;;;;;;47.80;9.38;;;;;;;5.81;94.63;102632.81;4984332;28;20045;-79
2022/01/30 09:49:50;;;;;;;40.28;8.57;;;;;;;5.76;92.15;102646.47;4974715;28;20050;-79
2022/01/30 09:52:20;;;;;;;44.20;7.63;;;;;;;5.74;93.83;102645.50;4950364;28;20042;-80
2022/01/30 09:54:49;;;;;;;43.95;8.98;;;;;;;5.76;93.36;102649.09;4946196;28;20043;-78
2022/01/30 09:57:18;;;;;;;40.35;9.27;;;;;;;5.78;93.08;102652.69;4957476;28;20061;-81
2022/01/30 09:59:46;;;;;;;40.20;7.97;;;;;;;5.82;93.31;102660.78;4983875;28;20081;-78
2022/01/30 10:02:15;;;;;;;48.97;8.60;;;;;;;5.86;93.89;102664.47;4968321;28;20050;-81
2022/01/30 10:04:44;;;;;;;34.80;7.38;;;;;;;5.92;94.06;102675.22;4959244;28;20261;-78
2022/01/30 10:07:17;;;;;;;52.33;11.38;;;;;;;5.95;94.70;102667.56;4983808;28;20049;-81
2022/01/30 10:09:49;;;;;;;52.20;9.32;;;;;;;5.98;94.83;102666.84;4967008;28;23703;-78
2022/01/30 10:12:20;;;;;;;48.72;9.23;;;;;;;6.00;94.31;102680.88;4973268;28;20042;-79
2022/01/30 10:15:02;;;;;;;37.17;7.60;;;;;;;6.03;93.54;102674.09;4962339;28;20053;-79
2022/01/30 10:17:48;;;;;;;48.63;9.18;;;;;;;6.05;93.23;102680.31;4975957;28;20286;-78
2022/01/30 10:20:37;;;;;;;52.35;10.20;;;;;;;6.09;92.25;102673.50;4967662;28;20316;-79
2022/01/30 10:23:10;;;;;;;49.28;8.30;;;;;;;6.12;92.19;102681.50;4989759;28;20049;-78
2022/01/30 10:25:50;;;;;;;48.58;8.77;;;;;;;6.16;91.31;102685.16;4948892;28;20547;-78
2022/01/30 10:28:31;;;;;;;43.85;8.95;;;;;;;6.19;92.42;102688.84;4981426;28;20050;-79
2022/01/30 10:31:07;;;;;;;;;;;;;;;6.18;89.82;102699.22;4956165;28;20046;-79
2022/01/30 10:33:45;;;;;;;41.95;7.18;;;;;;;6.17;91.70;102715.78;4969839;28;19922;-80
2022/01/30 10:36:32;;;;;;;34.40;6.75;;;;;;;6.13;87.34;102709.47;4977834;28;20050;-79
2022/01/30 10:39:12;;;;;;;35.63;8.73;;;;;;;6.13;88.91;102725.19;4961691;28;20042;-79
2022/01/30 10:41:53;;;;;;;35.33;7.17;;;;;;;6.16;89.08;102732.28;4971906;28;20559;-79
2022/01/30 10:44:21;;;;;;;32.72;7.20;;;;;;;6.19;87.81;102728.13;4977351;28;20042;-78
2022/01/30 10:46:53;;;;;;;34.25;7.40;;;;;;;6.21;86.05;102736.06;4941895;28;20065;-79
2022/01/30 10:49:23;;;;;;;35.17;7.82;;;;;;;6.23;85.81;102734.41;4965927;28;20272;-78
2022/01/30 10:51:56;;;;;;;37.90;7.45;;;;;;;6.26;86.72;102752.91;4950222;28;20047;-78
2022/01/30 10:54:33;;;;;;;39.47;8.60;;;;;;;6.31;85.61;102747.88;4963124;28;20416;-79
2022/01/30 10:57:04;;;;;;;32.97;6.72;;;;;;;6.35;85.98;102741.97;4986274;28;20049;-79
2022/01/30 10:59:35;;;;;;;31.45;6.15;;;;;;;6.36;85.26;102749.94;4978738;28;20046;-78
2022/01/30 11:02:14;;;;;;;36.45;6.93;;;;;;;6.41;85.74;102737.97;4945302;28;20188;-78
2022/01/30 11:04:44;;;;;;;38.58;7.00;;;;;;;6.44;85.47;102739.84;4951282;28;20046;-78
2022/01/30 11:07:16;;;;;;;35.50;6.68;;;;;;;6.45;85.21;102744.25;4933006;28;20269;-78
2022/01/30 11:10:05;;;;;;;37.33;7.55;;;;;;;6.49;83.52;102735.72;4982250;28;20045;-79
2022/01/30 11:12:41;;;;;;;43.30;8.30;;;;;;;6.49;84.89;102740.97;4973185;28;20539;-79
2022/01/30 11:17:47;;;;;;;37.50;8.93;;;;;;;6.55;86.87;102730.78;4971702;28;20156;-79
2022/01/30 11:20:16;;;;;;;37.33;7.18;;;;;;;6.57;84.95;102741.34;4982535;28;20046;-80
2022/01/30 11:22:47;;;;;;;39.13;8.05;;;;;;;6.55;86.07;102730.78;4961399;28;20042;-80
2022/01/30 11:25:16;;;;;;;51.58;9.07;;;;;;;6.56;86.33;102736.91;4979695;28;20677;-78
2022/01/30 11:27:49;;;;;;;41.92;9.15;;;;;;;6.57;86.55;102737.00;4958952;28;20042;-80
2022/01/30 11:30:37;;;;;;;;;;;;;;;6.59;85.38;102735.34;4989950;28;20050;-80
2022/01/30 11:33:06;;;;;;;45.45;7.45;;;;;;;6.64;88.88;102731.25;4932227;28;20485;-79
2022/01/30 11:35:34;;;;;;;40.47;8.77;;;;;;;6.70;89.23;102735.00;4963799;28;20035;-79
2022/01/30 11:38:04;;;;;;;43.40;8.07;;;;;;;6.71;89.38;102734.16;4974822;28;20050;-79
2022/01/30 11:40:34;;;;;;;37.45;8.23;;;;;;;6.70;89.28;102733.28;4978333;28;20054;-79
2022/01/30 11:43:07;;;;;;;;;;;;;;;6.70;88.05;102735.00;4949928;28;20050;-79
2022/01/30 11:45:36;;;;;;;38.58;7.68;;;;;;;6.71;89.72;102732.47;5005237;28;20323;-78
2022/01/30 11:48:14;;;;;;;41.63;7.95;;;;;;;6.71;89.21;102731.53;4952327;28;20057;-78
2022/01/30 11:50:43;;;;;;;44.30;8.93;;;;;;;6.76;90.41;102738.81;4947992;28;20414;-79
2022/01/30 11:53:25;;;;;;;44.67;8.25;;;;;;;6.75;90.59;102749.25;4962238;28;20054;-79
2022/01/30 11:56:02;;;;;;;46.80;8.73;;;;;;;6.64;90.66;102752.22;4970103;28;20047;-79
2022/01/30 11:58:31;;;;;;;48.97;8.85;;;;;;;6.54;90.88;102749.97;4969123;28;20046;-78
2022/01/30 12:01:25;;;;;;;46.55;9.00;;;;;;;6.38;89.00;102747.38;4958479;28;20061;-79
2022/01/30 12:04:00;;;;;;;40.95;8.00;;;;;;;6.30;91.10;102759.19;4939770;28;20435;-78
2022/01/30 12:06:32;;;;;;;45.47;7.95;;;;;;;6.27;92.05;102754.69;4986941;28;20050;-78
2022/01/30 12:09:03;;;;;;;44.40;9.30;;;;;;;6.23;93.38;102758.88;4976257;28;20382;-79
2022/01/30 12:11:37;;;;;;;42.13;8.55;;;;;;;6.21;93.21;102752.66;4997461;28;20043;-79
2022/01/30 12:14:10;;;;;;;43.28;9.60;;;;;;;6.26;93.72;102752.91;4967252;28;20279;-79
2022/01/30 12:16:45;;;;;;;43.80;8.52;;;;;;;6.31;94.17;102753.13;4970462;28;20057;-78
2022/01/30 12:19:18;;;;;;;41.30;8.30;;;;;;;6.37;94.68;102756.06;4934981;28;20050;-79
2022/01/30 12:21:48;;;;;;;40.65;10.35;;;;;;;6.41;94.45;102769.41;4932839;28;20043;-78
2022/01/30 12:24:26;;;;;;;37.03;6.95;;;;;;;6.50;93.39;102768.06;4954751;28;20050;-80
2022/01/30 12:26:58;;;;;;;39.47;8.20;;;;;;;6.60;93.09;102763.38;4949220;28;20049;-79
2022/01/30 12:29:34;;;;;;;43.85;8.23;;;;;;;6.71;91.61;102750.81;4975178;28;20085;-79
2022/01/30 12:32:22;;;;;;;39.00;7.82;;;;;;;6.72;85.83;102746.47;4999290;28;20063;-78
2022/01/30 12:34:54;;;;;;;33.35;6.88;;;;;;;6.69;87.77;102756.78;4970735;28;20050;-78
2022/01/30 12:37:23;;;;;;;35.25;7.18;;;;;;;6.66;89.16;102748.78;4983572;28;20333;-78
2022/01/30 12:39:53;;;;;;;38.00;8.15;;;;;;;6.64;88.93;102743.47;4960034;28;20046;-78
2022/01/30 12:42:24;;;;;;;36.20;7.28;;;;;;;6.57;88.38;102736.13;4985917;28;20397;-79
2022/01/30 12:44:58;;;;;;;;;;;;;;;6.44;83.79;102732.88;4980193;28;20527;-78
2022/01/30 12:47:26;;;;;;;40.05;7.75;;;;;;;6.38;88.36;102739.53;4941065;28;19930;-79
2022/01/30 12:49:58;;;;;;;39.40;7.85;;;;;;;6.35;88.53;102734.13;4915264;28;20415;-79
2022/01/30 12:54:59;;;;;;;43.30;8.20;;;;;;;6.38;90.44;102736.91;4970378;28;20412;-79